sensor_id;sensor_type;location;lat;lon;timestamp;temperature;humidity
75451;DHT22;64029;48.244;9.188;2023-09-19T00:00:56;15.20;86.20
75451;DHT22;64029;48.244;9.188;2023-09-19T00:03:23;15.20;86.30
75451;DHT22;64029;48.244;9.188;2023-09-19T00:05:52;15.20;86.20
75451;DHT22;64029;48.244;9.188;2023-09-19T00:08:21;15.20;86.20
75451;DHT22;64029;48.244;9.188;2023-09-19T00:10:50;15.20;86.30
75451;DHT22;64029;48.244;9.188;2023-09-19T00:13:19;15.10;86.20
75451;DHT22;64029;48.244;9.188;2023-09-19T00:15:47;15.20;86.30
75451;DHT22;64029;48.244;9.188;2023-09-19T00:18:15;15.10;86.50
75451;DHT22;64029;48.244;9.188;2023-09-19T00:20:42;15.10;86.60
75451;DHT22;64029;48.244;9.188;2023-09-19T00:23:14;15.10;86.50
75451;DHT22;64029;48.244;9.188;2023-09-19T00:25:42;15.10;86.40
75451;DHT22;64029;48.244;9.188;2023-09-19T00:28:08;15.10;86.40
75451;DHT22;64029;48.244;9.188;2023-09-19T00:30:35;15.10;86.40
75451;DHT22;64029;48.244;9.188;2023-09-19T00:33:04;15.10;86.50
75451;DHT22;64029;48.244;9.188;2023-09-19T00:35:33;15.00;86.40
75451;DHT22;64029;48.244;9.188;2023-09-19T00:38:00;15.00;86.50
75451;DHT22;64029;48.244;9.188;2023-09-19T00:40:28;15.00;85.80
75451;DHT22;64029;48.244;9.188;2023-09-19T00:42:58;15.00;86.20
75451;DHT22;64029;48.244;9.188;2023-09-19T00:45:27;15.00;87.90
75451;DHT22;64029;48.244;9.188;2023-09-19T00:47:54;15.00;88.10
75451;DHT22;64029;48.244;9.188;2023-09-19T00:50:23;15.00;87.40
75451;DHT22;64029;48.244;9.188;2023-09-19T00:52:54;15.00;87.10
75451;DHT22;64029;48.244;9.188;2023-09-19T00:55:22;15.00;87.10
75451;DHT22;64029;48.244;9.188;2023-09-19T00:57:51;14.90;86.90
75451;DHT22;64029;48.244;9.188;2023-09-19T01:00:19;14.90;86.70
75451;DHT22;64029;48.244;9.188;2023-09-19T01:02:47;14.90;86.70
75451;DHT22;64029;48.244;9.188;2023-09-19T01:05:14;14.90;87.00
75451;DHT22;64029;48.244;9.188;2023-09-19T01:07:41;14.90;87.00
75451;DHT22;64029;48.244;9.188;2023-09-19T01:10:12;14.90;87.50
75451;DHT22;64029;48.244;9.188;2023-09-19T01:12:47;14.90;87.10
75451;DHT22;64029;48.244;9.188;2023-09-19T01:15:24;14.90;86.90
75451;DHT22;64029;48.244;9.188;2023-09-19T01:18:00;14.90;87.30
75451;DHT22;64029;48.244;9.188;2023-09-19T01:20:39;14.90;87.00
75451;DHT22;64029;48.244;9.188;2023-09-19T01:23:16;14.90;86.90
75451;DHT22;64029;48.244;9.188;2023-09-19T01:26:06;14.80;87.00
75451;DHT22;64029;48.244;9.188;2023-09-19T01:28:51;14.80;87.00
75451;DHT22;64029;48.244;9.188;2023-09-19T01:31:22;14.80;87.00
75451;DHT22;64029;48.244;9.188;2023-09-19T01:33:58;14.80;86.80
75451;DHT22;64029;48.244;9.188;2023-09-19T01:36:27;14.80;86.80
75451;DHT22;64029;48.244;9.188;2023-09-19T01:38:55;14.80;86.70
75451;DHT22;64029;48.244;9.188;2023-09-19T01:41:32;14.80;86.90
75451;DHT22;64029;48.244;9.188;2023-09-19T01:44:00;14.80;87.40
75451;DHT22;64029;48.244;9.188;2023-09-19T01:46:35;14.70;86.80
75451;DHT22;64029;48.244;9.188;2023-09-19T01:49:18;14.70;86.90
75451;DHT22;64029;48.244;9.188;2023-09-19T01:51:53;14.70;86.80
75451;DHT22;64029;48.244;9.188;2023-09-19T01:54:26;14.70;86.60
75451;DHT22;64029;48.244;9.188;2023-09-19T01:57:01;14.70;86.40
75451;DHT22;64029;48.244;9.188;2023-09-19T01:59:35;14.70;86.30
75451;DHT22;64029;48.244;9.188;2023-09-19T02:02:06;14.70;87.60
75451;DHT22;64029;48.244;9.188;2023-09-19T02:04:34;14.80;87.10
75451;DHT22;64029;48.244;9.188;2023-09-19T02:07:01;14.70;86.60
75451;DHT22;64029;48.244;9.188;2023-09-19T02:09:31;14.70;86.60
75451;DHT22;64029;48.244;9.188;2023-09-19T02:11:58;14.70;86.60
75451;DHT22;64029;48.244;9.188;2023-09-19T02:14:25;14.70;86.50
75451;DHT22;64029;48.244;9.188;2023-09-19T02:16:53;14.70;86.80
75451;DHT22;64029;48.244;9.188;2023-09-19T02:19:21;14.70;86.80
75451;DHT22;64029;48.244;9.188;2023-09-19T02:21:48;14.70;87.10
75451;DHT22;64029;48.244;9.188;2023-09-19T02:24:15;14.70;86.70
75451;DHT22;64029;48.244;9.188;2023-09-19T02:26:42;14.70;87.60
75451;DHT22;64029;48.244;9.188;2023-09-19T02:29:09;14.60;86.80
75451;DHT22;64029;48.244;9.188;2023-09-19T02:31:38;14.60;86.90
75451;DHT22;64029;48.244;9.188;2023-09-19T02:34:05;14.60;86.60
75451;DHT22;64029;48.244;9.188;2023-09-19T02:36:36;14.60;86.70
75451;DHT22;64029;48.244;9.188;2023-09-19T02:39:03;14.60;86.80
75451;DHT22;64029;48.244;9.188;2023-09-19T02:41:31;14.60;86.80
75451;DHT22;64029;48.244;9.188;2023-09-19T02:43:59;14.50;86.70
75451;DHT22;64029;48.244;9.188;2023-09-19T02:46:27;14.50;86.70
75451;DHT22;64029;48.244;9.188;2023-09-19T02:48:54;14.50;86.70
75451;DHT22;64029;48.244;9.188;2023-09-19T02:51:21;14.50;86.90
75451;DHT22;64029;48.244;9.188;2023-09-19T02:53:49;14.40;86.80
75451;DHT22;64029;48.244;9.188;2023-09-19T02:56:17;14.50;87.00
75451;DHT22;64029;48.244;9.188;2023-09-19T02:58:44;14.40;86.80
75451;DHT22;64029;48.244;9.188;2023-09-19T03:01:12;14.40;87.60
75451;DHT22;64029;48.244;9.188;2023-09-19T03:03:39;14.40;87.10
75451;DHT22;64029;48.244;9.188;2023-09-19T03:06:06;14.30;86.80
75451;DHT22;64029;48.244;9.188;2023-09-19T03:08:34;14.30;87.00
75451;DHT22;64029;48.244;9.188;2023-09-19T03:11:04;14.30;86.90
75451;DHT22;64029;48.244;9.188;2023-09-19T03:13:34;14.30;87.00
75451;DHT22;64029;48.244;9.188;2023-09-19T03:16:03;14.30;87.00
75451;DHT22;64029;48.244;9.188;2023-09-19T03:18:31;14.30;86.90
75451;DHT22;64029;48.244;9.188;2023-09-19T03:20:58;14.20;86.80
75451;DHT22;64029;48.244;9.188;2023-09-19T03:23:26;14.20;86.80
75451;DHT22;64029;48.244;9.188;2023-09-19T03:25:53;14.20;86.70
75451;DHT22;64029;48.244;9.188;2023-09-19T03:28:21;14.20;86.60
75451;DHT22;64029;48.244;9.188;2023-09-19T03:30:58;14.20;86.80
75451;DHT22;64029;48.244;9.188;2023-09-19T03:33:26;14.20;87.00
75451;DHT22;64029;48.244;9.188;2023-09-19T03:35:53;14.20;86.80
75451;DHT22;64029;48.244;9.188;2023-09-19T03:38:20;14.30;88.30
75451;DHT22;64029;48.244;9.188;2023-09-19T03:40:48;14.20;88.70
75451;DHT22;64029;48.244;9.188;2023-09-19T03:43:15;14.20;88.80
75451;DHT22;64029;48.244;9.188;2023-09-19T03:45:43;14.20;88.10
75451;DHT22;64029;48.244;9.188;2023-09-19T03:48:10;14.30;87.90
75451;DHT22;64029;48.244;9.188;2023-09-19T03:50:37;14.30;89.00
75451;DHT22;64029;48.244;9.188;2023-09-19T03:53:04;14.30;88.40
75451;DHT22;64029;48.244;9.188;2023-09-19T03:55:32;14.30;88.70
75451;DHT22;64029;48.244;9.188;2023-09-19T03:58:01;14.20;88.10
75451;DHT22;64029;48.244;9.188;2023-09-19T04:00:28;14.30;88.10
75451;DHT22;64029;48.244;9.188;2023-09-19T04:02:56;14.30;88.50
75451;DHT22;64029;48.244;9.188;2023-09-19T04:05:23;14.30;88.30
75451;DHT22;64029;48.244;9.188;2023-09-19T04:07:50;14.30;88.10
75451;DHT22;64029;48.244;9.188;2023-09-19T04:10:17;14.30;88.60
75451;DHT22;64029;48.244;9.188;2023-09-19T04:12:51;14.20;88.00
75451;DHT22;64029;48.244;9.188;2023-09-19T04:15:19;14.20;87.80
75451;DHT22;64029;48.244;9.188;2023-09-19T04:17:47;14.30;88.40
75451;DHT22;64029;48.244;9.188;2023-09-19T04:20:16;14.20;88.30
75451;DHT22;64029;48.244;9.188;2023-09-19T04:22:44;14.30;89.20
75451;DHT22;64029;48.244;9.188;2023-09-19T04:25:11;14.20;89.00
75451;DHT22;64029;48.244;9.188;2023-09-19T04:27:37;14.30;89.20
75451;DHT22;64029;48.244;9.188;2023-09-19T04:30:07;14.30;89.10
75451;DHT22;64029;48.244;9.188;2023-09-19T04:32:35;14.30;88.90
75451;DHT22;64029;48.244;9.188;2023-09-19T04:35:04;14.30;89.00
75451;DHT22;64029;48.244;9.188;2023-09-19T04:37:36;14.30;89.60
75451;DHT22;64029;48.244;9.188;2023-09-19T04:40:05;14.30;89.10
75451;DHT22;64029;48.244;9.188;2023-09-19T04:42:38;14.30;89.20
75451;DHT22;64029;48.244;9.188;2023-09-19T04:45:06;14.30;89.00
75451;DHT22;64029;48.244;9.188;2023-09-19T04:47:34;14.30;88.80
75451;DHT22;64029;48.244;9.188;2023-09-19T04:50:00;14.30;88.80
75451;DHT22;64029;48.244;9.188;2023-09-19T04:52:30;14.30;88.30
75451;DHT22;64029;48.244;9.188;2023-09-19T04:54:59;14.30;88.20
75451;DHT22;64029;48.244;9.188;2023-09-19T04:57:25;14.30;88.20
75451;DHT22;64029;48.244;9.188;2023-09-19T04:59:53;14.30;88.10
75451;DHT22;64029;48.244;9.188;2023-09-19T05:02:20;14.20;87.90
75451;DHT22;64029;48.244;9.188;2023-09-19T05:04:47;14.20;87.80
75451;DHT22;64029;48.244;9.188;2023-09-19T05:07:14;14.20;87.70
75451;DHT22;64029;48.244;9.188;2023-09-19T05:09:41;14.20;87.80
75451;DHT22;64029;48.244;9.188;2023-09-19T05:12:10;14.20;87.60
75451;DHT22;64029;48.244;9.188;2023-09-19T05:14:37;14.20;87.60
75451;DHT22;64029;48.244;9.188;2023-09-19T05:17:06;14.20;88.20
75451;DHT22;64029;48.244;9.188;2023-09-19T05:19:33;14.10;87.40
75451;DHT22;64029;48.244;9.188;2023-09-19T05:22:00;14.10;87.20
75451;DHT22;64029;48.244;9.188;2023-09-19T05:24:28;14.10;87.40
75451;DHT22;64029;48.244;9.188;2023-09-19T05:26:55;14.10;88.10
75451;DHT22;64029;48.244;9.188;2023-09-19T05:29:24;14.10;87.50
75451;DHT22;64029;48.244;9.188;2023-09-19T05:31:50;14.10;87.50
75451;DHT22;64029;48.244;9.188;2023-09-19T05:34:21;14.10;87.40
75451;DHT22;64029;48.244;9.188;2023-09-19T05:36:48;14.00;87.30
75451;DHT22;64029;48.244;9.188;2023-09-19T05:39:15;14.00;87.10
75451;DHT22;64029;48.244;9.188;2023-09-19T05:41:42;14.00;87.30
75451;DHT22;64029;48.244;9.188;2023-09-19T05:44:09;14.00;87.10
75451;DHT22;64029;48.244;9.188;2023-09-19T05:46:37;14.00;87.10
75451;DHT22;64029;48.244;9.188;2023-09-19T05:49:04;14.00;87.50
75451;DHT22;64029;48.244;9.188;2023-09-19T05:51:31;14.00;88.60
75451;DHT22;64029;48.244;9.188;2023-09-19T05:53:58;14.00;87.70
75451;DHT22;64029;48.244;9.188;2023-09-19T05:56:25;14.00;87.90
75451;DHT22;64029;48.244;9.188;2023-09-19T05:58:52;14.00;88.20
75451;DHT22;64029;48.244;9.188;2023-09-19T06:01:18;14.00;87.90
75451;DHT22;64029;48.244;9.188;2023-09-19T06:03:46;14.00;87.90
75451;DHT22;64029;48.244;9.188;2023-09-19T06:06:13;14.00;88.40
75451;DHT22;64029;48.244;9.188;2023-09-19T06:08:40;14.00;88.70
75451;DHT22;64029;48.244;9.188;2023-09-19T06:11:09;14.00;88.10
75451;DHT22;64029;48.244;9.188;2023-09-19T06:13:37;14.00;88.30
75451;DHT22;64029;48.244;9.188;2023-09-19T06:16:04;14.10;88.10
75451;DHT22;64029;48.244;9.188;2023-09-19T06:18:31;14.10;88.00
75451;DHT22;64029;48.244;9.188;2023-09-19T06:21:00;14.10;87.70
75451;DHT22;64029;48.244;9.188;2023-09-19T06:23:33;14.20;88.20
75451;DHT22;64029;48.244;9.188;2023-09-19T06:26:00;14.20;87.90
75451;DHT22;64029;48.244;9.188;2023-09-19T06:28:27;14.20;87.70
75451;DHT22;64029;48.244;9.188;2023-09-19T06:30:54;14.20;87.80
75451;DHT22;64029;48.244;9.188;2023-09-19T06:33:22;14.30;88.00
75451;DHT22;64029;48.244;9.188;2023-09-19T06:35:49;14.30;88.00
75451;DHT22;64029;48.244;9.188;2023-09-19T06:38:24;14.30;87.70
75451;DHT22;64029;48.244;9.188;2023-09-19T06:40:51;14.40;87.90
75451;DHT22;64029;48.244;9.188;2023-09-19T06:43:18;14.40;88.30
75451;DHT22;64029;48.244;9.188;2023-09-19T06:45:45;14.40;88.20
75451;DHT22;64029;48.244;9.188;2023-09-19T06:48:12;14.40;88.30
75451;DHT22;64029;48.244;9.188;2023-09-19T06:50:39;14.50;88.20
75451;DHT22;64029;48.244;9.188;2023-09-19T06:53:06;14.50;88.10
75451;DHT22;64029;48.244;9.188;2023-09-19T06:55:35;14.50;88.90
75451;DHT22;64029;48.244;9.188;2023-09-19T06:58:02;14.60;88.20
75451;DHT22;64029;48.244;9.188;2023-09-19T07:00:31;14.60;88.10
75451;DHT22;64029;48.244;9.188;2023-09-19T07:03:00;14.60;87.90
75451;DHT22;64029;48.244;9.188;2023-09-19T07:05:29;14.70;88.20
75451;DHT22;64029;48.244;9.188;2023-09-19T07:07:56;14.70;88.50
75451;DHT22;64029;48.244;9.188;2023-09-19T07:10:24;14.70;87.90
75451;DHT22;64029;48.244;9.188;2023-09-19T07:12:58;14.80;87.80
75451;DHT22;64029;48.244;9.188;2023-09-19T07:15:25;14.80;87.90
75451;DHT22;64029;48.244;9.188;2023-09-19T07:17:52;14.80;87.70
75451;DHT22;64029;48.244;9.188;2023-09-19T07:20:19;14.90;87.70
75451;DHT22;64029;48.244;9.188;2023-09-19T07:22:46;14.90;87.70
75451;DHT22;64029;48.244;9.188;2023-09-19T07:25:14;14.90;87.50
75451;DHT22;64029;48.244;9.188;2023-09-19T07:27:41;14.90;87.40
75451;DHT22;64029;48.244;9.188;2023-09-19T07:30:10;15.00;87.40
75451;DHT22;64029;48.244;9.188;2023-09-19T07:32:38;15.00;87.40
75451;DHT22;64029;48.244;9.188;2023-09-19T07:35:06;15.00;87.30
75451;DHT22;64029;48.244;9.188;2023-09-19T07:37:33;15.10;87.40
75451;DHT22;64029;48.244;9.188;2023-09-19T07:40:01;15.10;87.30
75451;DHT22;64029;48.244;9.188;2023-09-19T07:42:32;15.10;87.20
75451;DHT22;64029;48.244;9.188;2023-09-19T07:45:00;15.20;87.30
75451;DHT22;64029;48.244;9.188;2023-09-19T07:47:28;15.20;87.10
75451;DHT22;64029;48.244;9.188;2023-09-19T07:49:58;15.20;87.30
75451;DHT22;64029;48.244;9.188;2023-09-19T07:52:25;15.30;87.30
75451;DHT22;64029;48.244;9.188;2023-09-19T07:54:53;15.30;87.10
75451;DHT22;64029;48.244;9.188;2023-09-19T07:57:20;15.30;87.00
75451;DHT22;64029;48.244;9.188;2023-09-19T07:59:46;15.30;87.10
75451;DHT22;64029;48.244;9.188;2023-09-19T08:02:13;15.40;86.90
75451;DHT22;64029;48.244;9.188;2023-09-19T08:04:43;15.40;87.70
75451;DHT22;64029;48.244;9.188;2023-09-19T08:07:11;15.50;87.10
75451;DHT22;64029;48.244;9.188;2023-09-19T08:09:38;15.50;87.20
75451;DHT22;64029;48.244;9.188;2023-09-19T08:12:06;15.50;87.00
75451;DHT22;64029;48.244;9.188;2023-09-19T08:14:33;15.50;87.10
75451;DHT22;64029;48.244;9.188;2023-09-19T08:17:00;15.50;86.90
75451;DHT22;64029;48.244;9.188;2023-09-19T08:19:27;15.50;85.90
75451;DHT22;64029;48.244;9.188;2023-09-19T08:21:58;15.40;85.10
75451;DHT22;64029;48.244;9.188;2023-09-19T08:24:25;15.30;84.20
75451;DHT22;64029;48.244;9.188;2023-09-19T08:26:54;15.30;84.20
75451;DHT22;64029;48.244;9.188;2023-09-19T08:29:21;15.20;83.90
75451;DHT22;64029;48.244;9.188;2023-09-19T08:31:53;15.20;84.20
75451;DHT22;64029;48.244;9.188;2023-09-19T08:34:21;15.20;84.30
75451;DHT22;64029;48.244;9.188;2023-09-19T08:36:49;15.20;84.50
75451;DHT22;64029;48.244;9.188;2023-09-19T08:39:18;15.30;84.80
75451;DHT22;64029;48.244;9.188;2023-09-19T08:41:45;15.30;84.90
75451;DHT22;64029;48.244;9.188;2023-09-19T08:44:12;15.30;85.00
75451;DHT22;64029;48.244;9.188;2023-09-19T08:46:41;15.30;84.90
75451;DHT22;64029;48.244;9.188;2023-09-19T08:49:21;15.30;84.90
75451;DHT22;64029;48.244;9.188;2023-09-19T08:51:56;15.30;85.70
75451;DHT22;64029;48.244;9.188;2023-09-19T08:54:36;15.40;85.20
75451;DHT22;64029;48.244;9.188;2023-09-19T08:57:07;15.40;85.80
75451;DHT22;64029;48.244;9.188;2023-09-19T08:59:37;15.40;84.90
75451;DHT22;64029;48.244;9.188;2023-09-19T09:02:10;15.40;84.90
75451;DHT22;64029;48.244;9.188;2023-09-19T09:04:39;15.40;84.90
75451;DHT22;64029;48.244;9.188;2023-09-19T09:07:10;15.40;84.80
75451;DHT22;64029;48.244;9.188;2023-09-19T09:09:39;15.50;85.00
75451;DHT22;64029;48.244;9.188;2023-09-19T09:12:09;15.60;84.90
75451;DHT22;64029;48.244;9.188;2023-09-19T09:14:38;15.60;84.90
75451;DHT22;64029;48.244;9.188;2023-09-19T09:17:04;15.70;85.10
75451;DHT22;64029;48.244;9.188;2023-09-19T09:19:32;15.70;85.00
75451;DHT22;64029;48.244;9.188;2023-09-19T09:22:07;15.70;84.90
75451;DHT22;64029;48.244;9.188;2023-09-19T09:24:34;15.80;85.00
75451;DHT22;64029;48.244;9.188;2023-09-19T09:27:05;15.80;84.80
75451;DHT22;64029;48.244;9.188;2023-09-19T09:29:42;15.80;85.00
75451;DHT22;64029;48.244;9.188;2023-09-19T09:32:20;15.90;84.90
75451;DHT22;64029;48.244;9.188;2023-09-19T09:34:49;15.90;84.80
75451;DHT22;64029;48.244;9.188;2023-09-19T09:37:17;16.00;85.00
75451;DHT22;64029;48.244;9.188;2023-09-19T09:39:53;16.00;84.90
75451;DHT22;64029;48.244;9.188;2023-09-19T09:42:34;16.00;84.70
75451;DHT22;64029;48.244;9.188;2023-09-19T09:45:15;16.10;84.80
75451;DHT22;64029;48.244;9.188;2023-09-19T09:47:43;16.10;84.60
75451;DHT22;64029;48.244;9.188;2023-09-19T09:50:24;16.10;84.60
75451;DHT22;64029;48.244;9.188;2023-09-19T09:52:55;16.20;84.40
75451;DHT22;64029;48.244;9.188;2023-09-19T09:55:57;16.20;84.20
75451;DHT22;64029;48.244;9.188;2023-09-19T09:58:25;16.20;84.30
75451;DHT22;64029;48.244;9.188;2023-09-19T10:00:55;16.30;84.20
75451;DHT22;64029;48.244;9.188;2023-09-19T10:03:34;16.30;83.90
75451;DHT22;64029;48.244;9.188;2023-09-19T10:06:07;16.30;83.70
75451;DHT22;64029;48.244;9.188;2023-09-19T10:09:01;16.30;83.60
75451;DHT22;64029;48.244;9.188;2023-09-19T10:11:41;16.30;83.50
75451;DHT22;64029;48.244;9.188;2023-09-19T10:14:11;16.40;83.40
75451;DHT22;64029;48.244;9.188;2023-09-19T10:16:45;16.40;83.20
75451;DHT22;64029;48.244;9.188;2023-09-19T10:19:16;16.50;83.50
75451;DHT22;64029;48.244;9.188;2023-09-19T10:21:44;16.50;83.30
75451;DHT22;64029;48.244;9.188;2023-09-19T10:24:11;16.60;83.30
75451;DHT22;64029;48.244;9.188;2023-09-19T10:26:42;16.60;83.00
75451;DHT22;64029;48.244;9.188;2023-09-19T10:29:13;16.60;82.80
75451;DHT22;64029;48.244;9.188;2023-09-19T10:31:42;16.60;81.40
75451;DHT22;64029;48.244;9.188;2023-09-19T10:34:14;16.70;81.90
75451;DHT22;64029;48.244;9.188;2023-09-19T10:36:45;16.80;81.70
75451;DHT22;64029;48.244;9.188;2023-09-19T10:39:14;16.80;81.30
75451;DHT22;64029;48.244;9.188;2023-09-19T10:41:49;16.80;81.50
75451;DHT22;64029;48.244;9.188;2023-09-19T10:44:21;16.90;81.50
75451;DHT22;64029;48.244;9.188;2023-09-19T10:46:51;16.90;81.00
75451;DHT22;64029;48.244;9.188;2023-09-19T10:49:19;17.00;80.10
75451;DHT22;64029;48.244;9.188;2023-09-19T10:51:47;17.00;79.90
75451;DHT22;64029;48.244;9.188;2023-09-19T10:54:18;17.10;79.90
75451;DHT22;64029;48.244;9.188;2023-09-19T10:56:48;17.10;79.60
75451;DHT22;64029;48.244;9.188;2023-09-19T10:59:17;17.20;79.50
75451;DHT22;64029;48.244;9.188;2023-09-19T11:01:49;17.20;80.00
75451;DHT22;64029;48.244;9.188;2023-09-19T11:04:26;17.20;79.80
75451;DHT22;64029;48.244;9.188;2023-09-19T11:07:03;17.30;79.80
75451;DHT22;64029;48.244;9.188;2023-09-19T11:09:44;17.30;79.90
75451;DHT22;64029;48.244;9.188;2023-09-19T11:12:12;17.40;79.60
75451;DHT22;64029;48.244;9.188;2023-09-19T11:14:41;17.40;80.20
75451;DHT22;64029;48.244;9.188;2023-09-19T11:17:33;17.40;79.80
75451;DHT22;64029;48.244;9.188;2023-09-19T11:20:21;17.50;79.20
75451;DHT22;64029;48.244;9.188;2023-09-19T11:23:20;17.50;80.00
75451;DHT22;64029;48.244;9.188;2023-09-19T11:25:56;17.50;79.70
75451;DHT22;64029;48.244;9.188;2023-09-19T11:28:35;17.50;78.60
75451;DHT22;64029;48.244;9.188;2023-09-19T11:40:12;17.50;77.40
75451;DHT22;64029;48.244;9.188;2023-09-19T11:42:43;17.60;77.30
75451;DHT22;64029;48.244;9.188;2023-09-19T11:48:23;17.60;75.60
75451;DHT22;64029;48.244;9.188;2023-09-19T11:50:51;17.60;76.70
75451;DHT22;64029;48.244;9.188;2023-09-19T11:53:20;17.60;76.80
75451;DHT22;64029;48.244;9.188;2023-09-19T11:55:49;17.70;74.80
75451;DHT22;64029;48.244;9.188;2023-09-19T11:58:16;17.60;74.70
75451;DHT22;64029;48.244;9.188;2023-09-19T12:00:45;17.70;76.20
75451;DHT22;64029;48.244;9.188;2023-09-19T12:03:12;17.70;75.10
75451;DHT22;64029;48.244;9.188;2023-09-19T12:05:40;17.60;74.00
75451;DHT22;64029;48.244;9.188;2023-09-19T12:08:07;17.50;70.60
75451;DHT22;64029;48.244;9.188;2023-09-19T12:10:45;17.50;72.40
75451;DHT22;64029;48.244;9.188;2023-09-19T12:13:17;17.50;71.20
75451;DHT22;64029;48.244;9.188;2023-09-19T12:15:44;17.50;73.00
75451;DHT22;64029;48.244;9.188;2023-09-19T12:18:26;17.60;71.80
75451;DHT22;64029;48.244;9.188;2023-09-19T12:20:53;17.60;73.00
75451;DHT22;64029;48.244;9.188;2023-09-19T12:23:21;17.60;72.40
75451;DHT22;64029;48.244;9.188;2023-09-19T12:25:48;17.70;72.70
75451;DHT22;64029;48.244;9.188;2023-09-19T12:28:19;17.70;72.50
75451;DHT22;64029;48.244;9.188;2023-09-19T12:30:47;17.70;72.30
75451;DHT22;64029;48.244;9.188;2023-09-19T12:33:18;17.70;73.10
75451;DHT22;64029;48.244;9.188;2023-09-19T12:35:47;17.70;71.70
75451;DHT22;64029;48.244;9.188;2023-09-19T12:38:23;17.70;72.80
75451;DHT22;64029;48.244;9.188;2023-09-19T12:40:50;17.80;72.90
75451;DHT22;64029;48.244;9.188;2023-09-19T12:43:19;17.80;73.20
75451;DHT22;64029;48.244;9.188;2023-09-19T12:45:47;17.80;72.10
75451;DHT22;64029;48.244;9.188;2023-09-19T12:48:19;17.80;70.70
75451;DHT22;64029;48.244;9.188;2023-09-19T12:51:00;17.90;71.40
75451;DHT22;64029;48.244;9.188;2023-09-19T12:53:31;17.90;71.50
75451;DHT22;64029;48.244;9.188;2023-09-19T12:55:59;17.90;72.20
75451;DHT22;64029;48.244;9.188;2023-09-19T12:58:28;17.90;69.40
75451;DHT22;64029;48.244;9.188;2023-09-19T13:00:58;17.90;71.60
75451;DHT22;64029;48.244;9.188;2023-09-19T13:03:26;17.90;70.80
75451;DHT22;64029;48.244;9.188;2023-09-19T13:05:55;18.00;70.60
75451;DHT22;64029;48.244;9.188;2023-09-19T13:08:27;18.10;71.10
75451;DHT22;64029;48.244;9.188;2023-09-19T13:11:01;18.10;71.70
75451;DHT22;64029;48.244;9.188;2023-09-19T13:13:29;18.10;71.30
75451;DHT22;64029;48.244;9.188;2023-09-19T13:15:57;18.10;71.30
75451;DHT22;64029;48.244;9.188;2023-09-19T13:18:25;18.20;69.60
75451;DHT22;64029;48.244;9.188;2023-09-19T13:21:05;18.20;68.40
75451;DHT22;64029;48.244;9.188;2023-09-19T13:23:36;18.20;68.50
75451;DHT22;64029;48.244;9.188;2023-09-19T13:26:03;18.20;68.20
75451;DHT22;64029;48.244;9.188;2023-09-19T13:28:33;18.30;69.80
75451;DHT22;64029;48.244;9.188;2023-09-19T13:31:00;18.30;69.10
75451;DHT22;64029;48.244;9.188;2023-09-19T13:33:27;18.30;70.00
75451;DHT22;64029;48.244;9.188;2023-09-19T13:35:54;18.30;68.40
75451;DHT22;64029;48.244;9.188;2023-09-19T13:38:22;18.30;68.00
75451;DHT22;64029;48.244;9.188;2023-09-19T13:40:49;18.30;68.70
75451;DHT22;64029;48.244;9.188;2023-09-19T13:43:18;18.40;67.00
75451;DHT22;64029;48.244;9.188;2023-09-19T13:45:47;18.40;69.20
75451;DHT22;64029;48.244;9.188;2023-09-19T13:48:14;18.40;68.90
75451;DHT22;64029;48.244;9.188;2023-09-19T13:50:41;18.40;66.10
75451;DHT22;64029;48.244;9.188;2023-09-19T13:53:08;18.40;67.00
75451;DHT22;64029;48.244;9.188;2023-09-19T13:55:35;18.50;69.00
75451;DHT22;64029;48.244;9.188;2023-09-19T13:58:03;18.50;68.30
75451;DHT22;64029;48.244;9.188;2023-09-19T14:00:31;18.50;68.40
75451;DHT22;64029;48.244;9.188;2023-09-19T14:03:01;18.60;68.40
75451;DHT22;64029;48.244;9.188;2023-09-19T14:05:29;18.60;67.70
75451;DHT22;64029;48.244;9.188;2023-09-19T14:07:56;18.60;65.90
75451;DHT22;64029;48.244;9.188;2023-09-19T14:10:25;18.70;67.40
75451;DHT22;64029;48.244;9.188;2023-09-19T14:12:53;18.70;68.10
75451;DHT22;64029;48.244;9.188;2023-09-19T14:15:20;18.80;68.50
75451;DHT22;64029;48.244;9.188;2023-09-19T14:17:55;18.80;68.40
75451;DHT22;64029;48.244;9.188;2023-09-19T14:20:23;18.80;68.20
75451;DHT22;64029;48.244;9.188;2023-09-19T14:22:51;18.80;68.50
75451;DHT22;64029;48.244;9.188;2023-09-19T14:25:18;18.90;66.40
75451;DHT22;64029;48.244;9.188;2023-09-19T14:27:44;18.90;67.10
75451;DHT22;64029;48.244;9.188;2023-09-19T14:30:13;18.90;65.90
75451;DHT22;64029;48.244;9.188;2023-09-19T14:32:40;19.00;66.80
75451;DHT22;64029;48.244;9.188;2023-09-19T14:35:10;18.90;67.30
75451;DHT22;64029;48.244;9.188;2023-09-19T14:37:40;18.90;67.30
75451;DHT22;64029;48.244;9.188;2023-09-19T14:40:08;19.00;64.80
75451;DHT22;64029;48.244;9.188;2023-09-19T14:42:38;19.00;65.60
75451;DHT22;64029;48.244;9.188;2023-09-19T14:45:06;19.00;66.80
75451;DHT22;64029;48.244;9.188;2023-09-19T14:47:33;19.00;66.30
75451;DHT22;64029;48.244;9.188;2023-09-19T14:50:01;19.00;66.60
75451;DHT22;64029;48.244;9.188;2023-09-19T14:52:28;19.00;65.70
75451;DHT22;64029;48.244;9.188;2023-09-19T14:54:56;19.00;64.90
75451;DHT22;64029;48.244;9.188;2023-09-19T14:57:23;19.00;64.90
75451;DHT22;64029;48.244;9.188;2023-09-19T14:59:51;19.00;66.00
75451;DHT22;64029;48.244;9.188;2023-09-19T15:02:18;19.10;66.40
75451;DHT22;64029;48.244;9.188;2023-09-19T15:04:45;19.10;67.70
75451;DHT22;64029;48.244;9.188;2023-09-19T15:07:12;19.10;65.30
75451;DHT22;64029;48.244;9.188;2023-09-19T15:09:40;19.10;66.20
75451;DHT22;64029;48.244;9.188;2023-09-19T15:12:09;19.10;65.70
75451;DHT22;64029;48.244;9.188;2023-09-19T15:14:36;19.10;65.80
75451;DHT22;64029;48.244;9.188;2023-09-19T15:17:03;19.10;65.00
75451;DHT22;64029;48.244;9.188;2023-09-19T15:19:32;19.20;64.90
75451;DHT22;64029;48.244;9.188;2023-09-19T15:21:59;19.20;66.60
75451;DHT22;64029;48.244;9.188;2023-09-19T15:24:26;19.20;66.40
75451;DHT22;64029;48.244;9.188;2023-09-19T15:26:53;19.20;66.10
75451;DHT22;64029;48.244;9.188;2023-09-19T15:29:22;19.20;64.20
75451;DHT22;64029;48.244;9.188;2023-09-19T15:31:49;19.20;65.40
75451;DHT22;64029;48.244;9.188;2023-09-19T15:34:16;19.20;64.70
75451;DHT22;64029;48.244;9.188;2023-09-19T15:36:43;19.20;62.80
75451;DHT22;64029;48.244;9.188;2023-09-19T15:39:11;19.10;64.60
75451;DHT22;64029;48.244;9.188;2023-09-19T15:41:42;19.10;65.50
75451;DHT22;64029;48.244;9.188;2023-09-19T15:44:12;19.10;64.80
75451;DHT22;64029;48.244;9.188;2023-09-19T15:46:40;19.10;65.40
75451;DHT22;64029;48.244;9.188;2023-09-19T15:49:08;19.10;65.40
75451;DHT22;64029;48.244;9.188;2023-09-19T15:51:35;19.10;65.20
75451;DHT22;64029;48.244;9.188;2023-09-19T15:54:07;19.10;66.00
75451;DHT22;64029;48.244;9.188;2023-09-19T15:56:34;19.10;66.00